createdAt,value
2023-03-13T13:09:03.596Z,53.56
2023-03-13T13:10:17.405Z,53.46
2023-03-13T13:11:31.120Z,53.47
2023-03-13T13:12:44.949Z,53.57
2023-03-13T13:13:58.808Z,53.76
2023-03-13T13:15:12.546Z,53.53
2023-03-13T13:16:27.907Z,53.57
2023-03-13T13:17:41.676Z,53.67
2023-03-13T13:18:55.719Z,53.43
2023-03-13T13:20:09.482Z,53.16
2023-03-13T13:21:12.069Z,52.81
2023-03-13T13:22:26.049Z,52.60
2023-03-13T13:23:38.123Z,52.71
2023-03-13T13:24:50.035Z,53.00
2023-03-13T13:26:06.435Z,53.38
2023-03-13T13:27:09.091Z,53.38
2023-03-13T13:28:22.929Z,53.21
2023-03-13T13:29:25.509Z,53.06
2023-03-13T13:30:39.344Z,53.14
2023-03-13T13:31:51.204Z,53.20
2023-03-13T13:32:44.812Z,53.04
2023-03-13T13:34:01.564Z,53.11
2023-03-13T13:35:17.955Z,52.94
2023-03-13T13:36:50.254Z,53.28
2023-03-13T13:38:03.836Z,53.45
2023-03-13T13:39:20.237Z,53.42
2023-03-13T13:40:34.057Z,53.41
2023-03-13T13:41:50.381Z,53.43
2023-03-13T13:43:16.238Z,53.43
2023-03-13T13:44:30.750Z,53.23
2023-03-13T13:45:44.878Z,53.05
2023-03-13T13:47:02.094Z,53.21
2023-03-13T13:48:16.023Z,53.24
2023-03-13T13:49:29.722Z,53.17
2023-03-13T13:50:23.280Z,52.94
2023-03-13T13:51:51.919Z,52.80
2023-03-13T13:53:05.402Z,52.79
2023-03-13T13:54:37.688Z,52.76
2023-03-13T13:57:25.888Z,52.84
2023-03-13T13:58:31.231Z,52.97
2023-03-13T14:00:03.180Z,52.97
2023-03-13T14:01:22.600Z,53.13
2023-03-13T14:02:48.758Z,52.95
2023-03-13T14:04:02.392Z,52.85
2023-03-13T14:05:18.752Z,52.80
2023-03-13T14:06:32.937Z,52.74
2023-03-13T14:07:47.171Z,52.45
2023-03-13T14:09:01.527Z,52.61
2023-03-13T14:10:21.589Z,52.68
2023-03-13T14:12:54.412Z,52.61
2023-03-13T14:14:07.962Z,52.86
2023-03-13T14:15:21.531Z,53.12
2023-03-13T14:16:35.270Z,53.21
2023-03-13T14:17:49.104Z,52.96
2023-03-13T14:18:56.239Z,52.96
2023-03-13T14:20:21.760Z,53.11
2023-03-13T14:21:44.468Z,53.07
2023-03-13T14:23:01.124Z,53.01
2023-03-13T14:24:17.606Z,53.18
2023-03-13T14:25:24.460Z,53.20
2023-03-13T14:26:35.251Z,53.27
2023-03-13T14:27:57.770Z,53.18
2023-03-13T14:28:51.328Z,53.22
2023-03-13T14:30:04.938Z,53.30
2023-03-13T14:31:18.662Z,53.31
2023-03-13T14:32:41.461Z,53.19
2023-03-13T14:33:55.524Z,53.21
2023-03-13T14:35:09.340Z,53.12
2023-03-13T14:36:23.253Z,53.12
2023-03-13T14:37:36.948Z,53.21
2023-03-13T14:38:59.609Z,53.19
2023-03-13T14:40:13.251Z,53.20
2023-03-13T14:41:26.864Z,53.19
2023-03-13T14:42:43.434Z,53.27
2023-03-13T14:43:56.978Z,53.34
2023-03-13T14:45:10.695Z,53.69
2023-03-13T14:46:25.648Z,53.84
2023-03-13T14:47:20.956Z,53.69
2023-03-13T14:48:34.569Z,53.64
2023-03-13T14:49:48.227Z,53.85
2023-03-13T14:51:14.280Z,53.84
2023-03-13T14:52:44.600Z,53.76
2023-03-13T14:53:33.994Z,53.80
2023-03-13T14:54:47.609Z,53.96
2023-03-13T14:56:04.442Z,54.18
2023-03-13T14:57:18.161Z,54.29
2023-03-13T14:58:38.016Z,54.31
2023-03-13T14:59:58.203Z,54.36
2023-03-13T15:01:12.201Z,54.42
2023-03-13T15:02:07.229Z,54.45
2023-03-13T15:03:21.249Z,54.42
2023-03-13T15:04:35.042Z,54.51
2023-03-13T15:05:48.872Z,54.55
2023-03-13T15:07:02.957Z,54.69
2023-03-13T15:08:19.772Z,54.87
2023-03-13T15:09:51.719Z,54.85
2023-03-13T15:11:05.438Z,54.84
2023-03-13T15:12:24.780Z,54.80
2023-03-13T15:13:38.745Z,54.75
2023-03-13T15:14:51.011Z,54.53
2023-03-13T15:15:44.446Z,54.54
2023-03-13T15:16:58.135Z,54.63
2023-03-13T15:18:13.009Z,54.66
2023-03-13T15:19:19.944Z,54.62
2023-03-13T15:20:33.875Z,54.56
2023-03-13T15:21:53.278Z,54.18
2023-03-13T15:23:09.861Z,54.29
2023-03-13T15:24:23.796Z,54.15
2023-03-13T15:25:27.004Z,54.15
2023-03-13T15:26:40.861Z,54.15
2023-03-13T15:28:00.505Z,54.28
2023-03-13T15:29:14.418Z,54.42
2023-03-13T15:30:27.997Z,54.38
2023-03-13T15:31:41.731Z,54.45
2023-03-13T15:32:58.149Z,54.38
2023-03-13T15:34:12.057Z,54.23
2023-03-13T15:35:11.764Z,54.15
2023-03-13T15:36:25.525Z,54.04
2023-03-13T15:37:27.974Z,54.08
2023-03-13T15:38:41.579Z,54.14
2023-03-13T15:39:55.171Z,54.25
2023-03-13T15:41:09.093Z,54.20
2023-03-13T15:42:23.012Z,54.10
2023-03-13T15:43:16.549Z,54.22
2023-03-13T15:44:19.006Z,54.14
2023-03-13T15:45:33.224Z,53.95
2023-03-13T15:46:47.366Z,53.95
2023-03-13T15:48:01.105Z,53.94
2023-03-13T15:49:03.356Z,53.90
2023-03-13T15:50:06.524Z,53.93
2023-03-13T15:51:20.660Z,53.96
2023-03-13T15:52:24.968Z,53.74
2023-03-13T15:53:18.857Z,53.81
2023-03-13T15:54:12.100Z,53.62
2023-03-13T15:55:25.637Z,53.54
2023-03-13T15:56:20.833Z,53.77
2023-03-13T15:57:23.752Z,53.91
2023-03-13T15:58:30.576Z,53.87
2023-03-13T15:59:44.586Z,53.95
2023-03-13T16:01:01.198Z,53.94
2023-03-13T16:02:15.030Z,54.12
2023-03-13T16:03:28.851Z,54.12
2023-03-13T16:04:42.709Z,53.98
2023-03-13T16:05:56.696Z,53.93
2023-03-13T16:07:10.286Z,53.82
2023-03-13T16:08:34.719Z,53.92
2023-03-13T16:09:50.315Z,53.93
2023-03-13T16:11:03.855Z,53.88
2023-03-13T16:12:17.528Z,53.92
2023-03-13T16:13:31.183Z,54.04
2023-03-13T16:14:44.766Z,54.01
2023-03-13T16:15:38.383Z,54.01
2023-03-13T16:17:04.394Z,54.11
2023-03-13T16:18:06.887Z,53.96
2023-03-13T16:19:20.424Z,53.92
2023-03-13T16:20:34.142Z,54.00
2023-03-13T16:21:47.604Z,54.11
2023-03-13T16:23:01.346Z,54.23
2023-03-13T16:24:15.008Z,54.27
2023-03-13T16:25:18.910Z,54.27
2023-03-13T16:26:25.467Z,54.10
2023-03-13T16:27:39.283Z,54.16
2023-03-13T16:28:53.120Z,54.21
2023-03-13T16:30:06.682Z,54.27
2023-03-13T16:31:20.619Z,54.25
2023-03-13T16:32:34.193Z,54.34
2023-03-13T16:33:48.196Z,54.35
2023-03-13T16:35:02.084Z,54.43
2023-03-13T16:36:15.616Z,54.48
2023-03-13T16:37:19.881Z,54.62
2023-03-13T16:38:33.843Z,54.68
2023-03-13T16:39:47.698Z,54.63
2023-03-13T16:40:49.822Z,54.65
2023-03-13T16:42:03.507Z,54.61
2023-03-13T16:43:17.173Z,54.67
2023-03-13T16:44:30.835Z,54.67
2023-03-13T16:45:46.772Z,54.77
2023-03-13T16:47:05.934Z,54.84
2023-03-13T16:48:20.108Z,54.86
2023-03-13T16:49:26.058Z,54.86
2023-03-13T16:50:22.322Z,55.05
2023-03-13T16:51:21.743Z,54.91
2023-03-13T16:52:35.263Z,55.16
2023-03-13T16:53:48.925Z,55.33
2023-03-13T16:55:02.513Z,55.40
2023-03-13T16:56:15.961Z,55.43
2023-03-13T16:57:29.612Z,55.49
2023-03-13T16:58:43.268Z,55.60
2023-03-13T16:59:56.430Z,55.75
2023-03-13T17:01:05.624Z,55.85
2023-03-13T17:02:19.988Z,55.75
2023-03-13T17:03:33.685Z,55.78
2023-03-13T17:04:47.364Z,55.59
2023-03-13T17:05:46.422Z,55.62
2023-03-13T17:06:52.916Z,55.57
2023-03-13T17:08:06.503Z,55.50
2023-03-13T17:09:20.129Z,55.36
2023-03-13T17:10:15.797Z,55.48
2023-03-13T17:11:32.008Z,55.31
2023-03-13T17:12:45.783Z,55.32
2023-03-13T17:13:59.446Z,55.26
2023-03-13T17:15:13.009Z,55.34
2023-03-13T17:16:26.621Z,55.38
2023-03-13T17:17:40.123Z,55.61
2023-03-13T17:18:53.622Z,55.52
2023-03-13T17:20:07.234Z,55.46
2023-03-13T17:21:20.874Z,55.55
2023-03-13T17:22:34.406Z,55.63
2023-03-13T17:23:48.033Z,55.61
2023-03-13T17:25:01.633Z,55.76
2023-03-13T17:26:15.273Z,55.78
2023-03-13T17:27:28.946Z,55.75
2023-03-13T17:28:42.516Z,55.58
2023-03-13T17:29:58.850Z,55.56
2023-03-13T17:31:12.384Z,55.58
2023-03-13T17:32:26.025Z,55.55
2023-03-13T17:33:28.021Z,55.49
2023-03-13T17:34:41.638Z,55.18
2023-03-13T17:35:55.223Z,55.09
2023-03-13T17:37:08.752Z,55.11
2023-03-13T17:38:22.371Z,55.04
2023-03-13T17:39:36.056Z,54.95
2023-03-13T17:40:54.546Z,55.00
2023-03-13T17:41:51.014Z,55.07
2023-03-13T17:42:57.523Z,55.03
2023-03-13T17:44:03.936Z,54.95
2023-03-13T17:45:18.231Z,54.99
2023-03-13T17:46:31.802Z,54.90
2023-03-13T17:47:45.598Z,54.87
2023-03-13T17:48:52.280Z,54.92
2023-03-13T17:50:05.949Z,54.85
2023-03-13T17:51:18.127Z,54.85
2023-03-13T17:52:31.830Z,54.83
2023-03-13T17:53:45.391Z,54.77
2023-03-13T17:54:58.856Z,54.53
2023-03-13T17:56:12.671Z,54.58
2023-03-13T17:57:26.287Z,54.61
2023-03-13T17:58:40.036Z,54.58
2023-03-13T17:59:53.805Z,54.66
2023-03-13T18:01:07.483Z,54.63
2023-03-13T18:02:21.128Z,54.42
2023-03-13T18:03:34.927Z,54.27
2023-03-13T18:04:48.448Z,54.14
2023-03-13T18:06:01.920Z,54.19
2023-03-13T18:07:10.822Z,54.23
2023-03-13T18:08:24.350Z,54.25
2023-03-13T18:09:38.013Z,54.40
2023-03-13T18:10:50.554Z,54.41
2023-03-13T18:11:53.064Z,54.35
2023-03-13T18:13:06.773Z,54.24
2023-03-13T18:14:20.397Z,54.34
2023-03-13T18:15:34.064Z,54.31
2023-03-13T18:16:45.979Z,54.32
2023-03-13T18:17:59.481Z,54.22
2023-03-13T18:19:13.199Z,54.21
2023-03-13T18:20:26.905Z,54.25
2023-03-13T18:21:40.730Z,54.18
2023-03-13T18:22:54.460Z,54.14
2023-03-13T18:24:08.044Z,54.20
2023-03-13T18:25:21.599Z,54.24
2023-03-13T18:26:23.927Z,54.42
2023-03-13T18:27:18.967Z,54.32
2023-03-13T18:28:32.590Z,54.24
2023-03-13T18:29:49.272Z,54.31
2023-03-13T18:31:02.903Z,54.30
2023-03-13T18:32:08.954Z,54.38
2023-03-13T18:33:21.448Z,54.29
2023-03-13T18:34:35.194Z,54.26
2023-03-13T18:35:48.841Z,54.32
2023-03-13T18:37:02.572Z,54.37
2023-03-13T18:38:16.208Z,54.27
2023-03-13T18:39:29.885Z,54.40
2023-03-13T18:40:46.284Z,54.42
2023-03-13T18:41:42.973Z,54.40
2023-03-13T18:42:56.591Z,54.38
2023-03-13T18:44:10.099Z,54.38
2023-03-13T18:45:23.861Z,54.23
2023-03-13T18:46:37.507Z,54.28
2023-03-13T18:47:51.152Z,54.42
2023-03-13T18:48:57.020Z,54.49
2023-03-13T18:50:10.763Z,54.42
2023-03-13T18:51:11.631Z,54.57
2023-03-13T18:52:25.323Z,54.70
2023-03-13T18:53:27.698Z,54.70
2023-03-13T18:54:41.330Z,54.69
2023-03-13T18:55:55.102Z,54.78
2023-03-13T18:57:08.795Z,54.77
2023-03-13T18:58:22.507Z,54.78
2023-03-13T18:59:36.257Z,54.77
2023-03-13T19:00:56.009Z,54.83
2023-03-13T19:02:02.807Z,54.82
2023-03-13T19:03:16.513Z,54.83
2023-03-13T19:04:30.264Z,54.91
2023-03-13T19:05:26.567Z,54.95
2023-03-13T19:06:32.781Z,54.98
2023-03-13T19:07:46.473Z,55.01
2023-03-13T19:08:53.002Z,55.03
2023-03-13T19:10:06.545Z,55.18
2023-03-13T19:11:20.317Z,55.29
2023-03-13T19:12:22.269Z,55.31
2023-03-13T19:13:35.882Z,55.39
2023-03-13T19:14:38.822Z,55.45
2023-03-13T19:15:52.595Z,55.27
2023-03-13T19:16:51.955Z,55.19
2023-03-13T19:18:05.650Z,55.27
2023-03-13T19:19:19.171Z,55.29
2023-03-13T19:20:32.844Z,55.19
2023-03-13T19:21:58.467Z,55.15
2023-03-13T19:23:04.987Z,55.19
2023-03-13T19:24:10.873Z,55.35
2023-03-13T19:25:24.441Z,55.43
2023-03-13T19:26:38.210Z,55.50
2023-03-13T19:27:40.347Z,55.31
2023-03-13T19:28:53.961Z,55.19
2023-03-13T19:29:57.491Z,55.10
2023-03-13T19:31:11.290Z,55.08
2023-03-13T19:32:24.795Z,55.11
2023-03-13T19:33:38.313Z,55.12
2023-03-13T19:34:51.891Z,55.08
2023-03-13T19:36:05.673Z,55.05
2023-03-13T19:37:20.020Z,55.17
2023-03-13T19:38:33.591Z,55.12
2023-03-13T19:39:42.546Z,55.27
2023-03-13T19:40:52.464Z,55.28
2023-03-13T19:42:06.092Z,55.31
2023-03-13T19:43:12.592Z,55.23
2023-03-13T19:44:26.244Z,55.16
2023-03-13T19:45:39.739Z,55.18
2023-03-13T19:46:47.814Z,55.19
2023-03-13T19:48:01.456Z,55.21
2023-03-13T19:49:15.054Z,55.25
2023-03-13T19:50:17.640Z,55.30
2023-03-13T19:51:31.254Z,55.32
2023-03-13T19:52:44.914Z,55.38
2023-03-13T19:53:47.176Z,55.42
2023-03-13T19:54:53.818Z,55.46
2023-03-13T19:56:07.858Z,55.49
2023-03-13T19:57:21.333Z,55.52
2023-03-13T19:58:34.945Z,55.46
2023-03-13T19:59:42.140Z,55.49
2023-03-13T20:00:57.435Z,55.56
2023-03-13T20:02:12.555Z,55.60
2023-03-13T20:03:26.293Z,55.61
2023-03-13T20:04:32.376Z,55.66
2023-03-13T20:05:44.457Z,55.61
2023-03-13T20:07:00.931Z,55.62
2023-03-13T20:07:57.665Z,55.71
2023-03-13T20:09:11.242Z,55.74
2023-03-13T20:10:24.811Z,55.78
2023-03-13T20:11:38.453Z,55.87
2023-03-13T20:12:52.010Z,55.96
2023-03-13T20:14:05.636Z,55.85
2023-03-13T20:15:19.231Z,55.82
2023-03-13T20:16:34.932Z,55.86
2023-03-13T20:17:38.228Z,55.83
2023-03-13T20:18:51.812Z,55.89
2023-03-13T20:20:05.157Z,55.92
2023-03-13T20:21:18.806Z,55.89
2023-03-13T20:22:32.411Z,55.76
2023-03-13T20:23:45.933Z,55.70
2023-03-13T20:24:59.441Z,55.73
2023-03-13T20:26:01.891Z,55.68
2023-03-13T20:27:15.541Z,55.71
2023-03-13T20:28:29.298Z,55.60
2023-03-13T20:29:42.433Z,55.56
2023-03-13T20:30:56.130Z,55.57
2023-03-13T20:31:59.907Z,55.62
2023-03-13T20:33:13.528Z,55.72
2023-03-13T20:34:27.043Z,55.67
2023-03-13T20:35:40.741Z,55.61
2023-03-13T20:36:37.686Z,55.63
2023-03-13T20:37:51.348Z,55.50
2023-03-13T20:39:04.924Z,55.52
2023-03-13T20:40:10.960Z,55.55
2023-03-13T20:42:55.661Z,55.56
2023-03-13T20:43:58.526Z,55.57
2023-03-13T20:45:12.227Z,55.51
2023-03-13T20:46:25.762Z,55.63
2023-03-13T20:47:42.128Z,55.69
2023-03-13T20:48:58.479Z,55.74
2023-03-13T20:50:12.509Z,55.69
2023-03-13T20:51:26.153Z,55.64
2023-03-13T20:52:39.768Z,55.67
2023-03-13T20:53:53.350Z,55.68
2023-03-13T20:55:06.823Z,55.64
2023-03-13T20:56:20.339Z,55.63
2023-03-13T20:57:33.966Z,55.67
2023-03-13T20:58:37.570Z,55.48
2023-03-13T20:59:51.116Z,55.40
2023-03-13T21:01:04.729Z,55.47
2023-03-13T21:02:18.343Z,55.49
2023-03-13T21:03:31.967Z,55.50
2023-03-13T21:04:45.559Z,55.61
2023-03-13T21:05:59.263Z,55.74
2023-03-13T21:07:05.157Z,55.81
2023-03-13T21:08:18.730Z,55.76
2023-03-13T21:09:32.365Z,55.72
2023-03-13T21:10:45.999Z,55.76
2023-03-13T21:12:02.376Z,55.73
2023-03-13T21:13:08.395Z,55.69
2023-03-13T21:14:21.950Z,55.61
2023-03-13T21:15:35.527Z,55.62
2023-03-13T21:16:49.203Z,55.64
2023-03-13T21:18:02.794Z,55.61
2023-03-13T21:19:16.356Z,55.46
2023-03-13T21:20:24.609Z,55.35
2023-03-13T21:21:36.950Z,55.28
2023-03-13T21:22:50.453Z,55.25
2023-03-13T21:24:02.038Z,55.27
2023-03-13T21:25:15.677Z,55.31
2023-03-13T21:26:29.414Z,55.30
2023-03-13T21:27:41.645Z,55.27
2023-03-13T21:28:48.028Z,55.24
2023-03-13T21:30:01.745Z,55.17
2023-03-13T21:31:15.365Z,55.14
2023-03-13T21:32:29.100Z,55.12
2023-03-13T21:33:35.353Z,55.04
2023-03-13T21:34:48.967Z,55.01
2023-03-13T21:36:02.624Z,55.02
2023-03-13T21:37:08.716Z,54.98
2023-03-13T21:38:22.354Z,54.96
2023-03-13T21:39:35.932Z,54.95
2023-03-13T21:40:49.388Z,54.98
2023-03-13T21:41:51.874Z,54.98
2023-03-13T21:43:05.384Z,54.98
2023-03-13T21:44:18.965Z,54.95
2023-03-13T21:45:22.497Z,54.94
2023-03-13T21:46:32.129Z,54.90
2023-03-13T21:47:37.181Z,54.89
2023-03-13T21:48:50.802Z,54.88
2023-03-13T21:50:04.316Z,54.79
2023-03-13T21:51:17.852Z,54.71
2023-03-13T21:52:31.383Z,54.72
2023-03-13T21:53:45.068Z,54.63
2023-03-13T21:54:58.612Z,54.64
2023-03-13T21:56:12.134Z,54.66
2023-03-13T21:57:25.687Z,54.55
2023-03-13T21:58:38.158Z,54.46
2023-03-13T21:59:36.741Z,54.32
2023-03-13T22:00:43.276Z,54.22
2023-03-13T22:01:45.559Z,54.19
2023-03-13T22:02:47.536Z,54.22
2023-03-13T22:04:01.409Z,54.22
2023-03-13T22:05:15.197Z,54.12
2023-03-13T22:06:29.199Z,54.13
2023-03-13T22:07:42.705Z,54.11
2023-03-13T22:08:56.302Z,54.21
2023-03-13T22:10:09.792Z,54.24
2023-03-13T22:11:23.478Z,54.27
2023-03-13T22:12:29.923Z,54.32
2023-03-13T22:13:43.678Z,54.28
2023-03-13T22:14:57.891Z,54.25
2023-03-13T22:16:11.650Z,54.17
2023-03-13T22:17:17.795Z,54.14
2023-03-13T22:18:23.852Z,54.15
2023-03-13T22:19:25.991Z,54.19
2023-03-13T22:20:39.562Z,54.15
2023-03-13T22:21:45.909Z,54.23
2023-03-13T22:22:59.521Z,54.21
2023-03-13T22:24:13.233Z,54.18
2023-03-13T22:25:16.669Z,54.22
2023-03-13T22:26:30.321Z,54.15
2023-03-13T22:27:44.144Z,54.11
2023-03-13T22:28:57.722Z,53.94
2023-03-13T22:30:11.254Z,53.99
2023-03-13T22:31:24.772Z,53.86
2023-03-13T22:32:38.461Z,53.65
2023-03-13T22:33:52.124Z,53.67
2023-03-13T22:35:05.792Z,53.76
2023-03-13T22:36:19.445Z,53.85
2023-03-13T22:37:21.916Z,53.93
2023-03-13T22:38:35.611Z,53.87
2023-03-13T22:39:49.342Z,53.96
2023-03-13T22:41:02.842Z,54.05
2023-03-13T22:42:16.515Z,53.83
2023-03-13T22:43:30.002Z,53.75
2023-03-13T22:44:43.634Z,53.70
2023-03-13T22:45:50.138Z,53.72
2023-03-13T22:47:03.696Z,53.63
2023-03-13T22:48:17.254Z,53.71
2023-03-13T22:49:30.867Z,53.76
2023-03-13T22:50:37.226Z,53.80
2023-03-13T22:51:50.786Z,53.66
2023-03-13T22:53:04.440Z,53.71
2023-03-13T22:54:18.220Z,53.55
2023-03-13T22:55:20.334Z,53.39
2023-03-13T22:56:33.061Z,53.36
2023-03-13T22:57:46.658Z,53.44
2023-03-13T22:59:00.272Z,53.43
2023-03-13T23:00:04.065Z,53.32
2023-03-13T23:01:17.852Z,53.27
2023-03-13T23:02:31.617Z,53.12
2023-03-13T23:03:45.368Z,53.09
2023-03-13T23:04:47.651Z,53.04
2023-03-13T23:06:01.257Z,52.96
2023-03-13T23:07:14.989Z,52.78
2023-03-13T23:08:28.548Z,52.91
2023-03-13T23:09:42.254Z,52.85
2023-03-13T23:10:55.998Z,52.80
2023-03-13T23:12:09.598Z,52.89
2023-03-13T23:13:11.910Z,52.93
2023-03-13T23:14:25.485Z,52.79
2023-03-13T23:15:43.041Z,52.73
2023-03-13T23:17:01.389Z,52.76
2023-03-13T23:18:14.811Z,52.61
2023-03-13T23:19:28.401Z,52.49
2023-03-13T23:20:22.122Z,52.53
2023-03-13T23:21:35.746Z,52.39
2023-03-13T23:22:49.259Z,52.38
2023-03-13T23:23:55.395Z,52.38
2023-03-13T23:25:08.839Z,52.43
2023-03-13T23:26:22.360Z,52.60
2023-03-13T23:27:24.672Z,52.62
2023-03-13T23:28:38.354Z,52.61
2023-03-13T23:29:51.937Z,52.53
2023-03-13T23:31:05.439Z,52.27
2023-03-13T23:32:11.898Z,52.09
2023-03-13T23:33:25.422Z,52.02
2023-03-13T23:34:39.179Z,51.90
2023-03-13T23:35:52.895Z,51.95
2023-03-13T23:37:06.522Z,51.93
2023-03-13T23:38:08.805Z,51.91
2023-03-13T23:39:11.295Z,51.63
2023-03-13T23:40:17.519Z,51.47
2023-03-13T23:41:31.118Z,51.42
2023-03-13T23:42:44.734Z,51.46
2023-03-13T23:43:58.417Z,51.42
2023-03-13T23:45:10.463Z,51.37
2023-03-13T23:46:03.669Z,51.29
2023-03-13T23:47:17.230Z,51.33
2023-03-13T23:48:30.878Z,51.33
2023-03-13T23:49:44.485Z,51.31
2023-03-13T23:50:58.393Z,51.16
2023-03-13T23:52:11.850Z,51.19
2023-03-13T23:53:25.467Z,51.09
2023-03-13T23:54:26.340Z,51.14
2023-03-13T23:55:40.006Z,51.16
2023-03-13T23:56:53.655Z,51.29
2023-03-13T23:58:07.211Z,51.21
2023-03-13T23:59:01.874Z,51.23
